Time;durP1;ratioP1;P1;durP2;ratioP2;P2;SDS_P1;SDS_P2;PMS_P1;PMS_P2;Temp;Humidity;BMP_temperature;BMP_pressure;BME280_temperature;BME280_humidity;BME280_pressure;Samples;Min_cycle;Max_cycle;Signal;HPM_P1;HPM_P2
2022/07/05 00:01:46;;;;;;;6.60;4.70;;;;;;;21.65;58.82;97955.73;105471;1284;22675;-80
2022/07/05 00:04:14;;;;;;;5.90;5.00;;;;;;;21.49;59.22;97966.39;105468;1284;23218;-81
2022/07/05 00:07:17;;;;;;;5.80;5.00;;;;;;;21.38;59.17;97978.42;105426;1284;22557;-81
2022/07/05 00:09:30;;;;;;;8.70;5.60;;;;;;;21.28;58.55;97995.79;105373;1284;22554;-83
2022/07/05 00:11:58;;;;;;;8.70;5.20;;;;;;;21.25;58.67;98007.96;105425;1284;25656;-82
2022/07/05 00:14:26;;;;;;;7.60;5.40;;;;;;;21.28;58.57;98024.05;105458;1284;24429;-80
2022/07/05 00:16:54;;;;;;;7.50;5.00;;;;;;;21.29;58.91;98034.65;106146;1284;25534;-81
2022/07/05 00:19:22;;;;;;;7.10;5.10;;;;;;;21.34;59.06;98044.52;105336;1284;25523;-79
2022/07/05 00:21:50;;;;;;;8.90;5.20;;;;;;;21.40;59.05;98043.23;105402;1284;25420;-80
2022/07/05 00:24:18;;;;;;;11.40;5.40;;;;;;;21.43;59.53;98039.62;105376;1284;22553;-78
2022/07/05 00:26:46;;;;;;;9.80;4.90;;;;;;;21.42;59.49;98036.29;105388;1284;24444;-78
2022/07/05 00:29:14;;;;;;;8.00;5.30;;;;;;;21.36;60.13;98030.39;105365;1284;22697;-79
2022/07/05 00:31:41;;;;;;;6.80;5.40;;;;;;;21.31;60.20;98023.34;105408;1284;24300;-82
2022/07/05 00:34:10;;;;;;;8.00;5.40;;;;;;;21.22;60.53;98018.40;105516;1284;22600;-82
2022/07/05 00:36:38;;;;;;;8.50;5.50;;;;;;;21.13;61.01;98010.34;105394;1284;25409;-83
2022/07/05 00:39:07;;;;;;;8.50;6.00;;;;;;;21.04;61.09;98002.92;105420;1284;22577;-82
2022/07/05 00:41:36;;;;;;;8.20;4.80;;;;;;;20.94;61.13;97993.58;105262;1284;22697;-82
2022/07/05 00:44:08;;;;;;;8.50;6.30;;;;;;;20.84;61.77;97985.42;105373;1284;22948;-82
2022/07/05 00:46:37;;;;;;;7.70;6.00;;;;;;;20.79;62.44;97974.23;105374;1284;25327;-82
2022/07/05 00:49:05;;;;;;;7.40;5.30;;;;;;;20.72;63.11;97977.30;105418;1284;22682;-80
2022/07/05 00:51:37;;;;;;;7.40;5.30;;;;;;;20.54;63.98;97979.23;105407;1284;22563;-80
2022/07/05 00:54:27;;;;;;;11.40;5.70;;;;;;;20.33;64.61;97981.95;105393;1284;22574;-80
2022/07/05 00:56:55;;;;;;;9.30;6.00;;;;;;;20.09;66.07;97971.91;105433;1284;25288;-81
2022/07/05 00:59:27;;;;;;;10.00;5.30;;;;;;;19.86;66.62;97966.89;105423;1284;23247;-81
2022/07/05 01:01:56;;;;;;;8.70;5.50;;;;;;;19.68;68.13;97967.46;105254;1284;24251;-82
2022/07/05 01:04:24;;;;;;;6.00;5.20;;;;;;;19.54;69.72;97959.15;105402;1284;25628;-82
2022/07/05 01:06:53;;;;;;;7.60;5.20;;;;;;;19.43;72.28;97957.73;105378;1284;22562;-83
2022/07/05 01:09:23;;;;;;;5.60;4.80;;;;;;;19.29;73.96;97949.91;105221;1284;22544;-82
2022/07/05 01:11:51;;;;;;;7.20;4.90;;;;;;;19.17;74.86;97952.45;105152;1284;22567;-83
2022/07/05 01:14:21;;;;;;;8.20;4.70;;;;;;;19.09;76.93;97952.88;105195;1284;22641;-82
2022/07/05 01:16:51;;;;;;;6.60;4.70;;;;;;;18.99;74.97;97956.77;105413;1284;22635;-82
2022/07/05 01:19:21;;;;;;;5.40;4.30;;;;;;;18.98;73.30;97961.98;105409;1284;25374;-82
2022/07/05 01:21:50;;;;;;;7.50;4.90;;;;;;;19.10;72.55;97963.98;105489;1284;22578;-82
2022/07/05 01:24:19;;;;;;;7.00;4.90;;;;;;;19.18;72.66;97958.94;106313;1283;22749;-81
2022/07/05 01:26:49;;;;;;;6.50;4.90;;;;;;;19.20;73.69;97949.86;105971;1284;22560;-82
2022/07/05 01:29:17;;;;;;;7.10;4.50;;;;;;;19.16;73.41;97949.30;105279;1284;24255;-81
2022/07/05 01:31:45;;;;;;;6.60;4.60;;;;;;;19.07;73.29;97935.36;105426;1284;25302;-81
2022/07/05 01:34:14;;;;;;;6.50;3.90;;;;;;;19.08;73.87;97937.81;105243;1284;24477;-81
2022/07/05 01:36:42;;;;;;;4.70;4.20;;;;;;;19.08;73.32;97934.50;105212;1287;23984;-81
2022/07/05 01:39:10;;;;;;;5.30;4.10;;;;;;;19.09;73.82;97932.65;105211;1283;22569;-81
2022/07/05 01:41:38;;;;;;;6.70;4.10;;;;;;;19.10;74.86;97935.17;105390;1284;22661;-81
2022/07/05 01:44:06;;;;;;;7.50;4.00;;;;;;;19.07;76.25;97936.05;105394;1284;22581;-82
2022/07/05 01:46:38;;;;;;;5.00;3.50;;;;;;;19.01;77.50;97936.15;105216;1284;25415;-81
2022/07/05 01:49:11;;;;;;;6.30;4.60;;;;;;;18.94;78.36;97934.81;105413;1284;25364;-82
2022/07/05 01:51:48;;;;;;;7.00;4.20;;;;;;;18.90;77.95;97935.02;105410;1284;24490;-81
2022/07/05 01:54:16;;;;;;;5.70;3.80;;;;;;;18.88;76.75;97932.02;105164;1284;283576;-82
2022/07/05 01:56:44;;;;;;;5.70;3.80;;;;;;;18.96;76.09;97933.61;105352;1284;26741;-81
2022/07/05 01:59:12;;;;;;;5.40;4.00;;;;;;;19.09;75.58;97935.46;105281;1284;25407;-81
2022/07/05 02:01:41;;;;;;;5.00;4.20;;;;;;;19.15;75.15;97933.59;105406;1284;22536;-81
2022/07/05 02:04:11;;;;;;;4.60;3.50;;;;;;;19.20;75.35;97935.03;105401;1284;23121;-82
2022/07/05 02:06:40;;;;;;;5.40;3.40;;;;;;;19.22;76.50;97928.14;105329;1284;25390;-81
2022/07/05 02:09:09;;;;;;;3.80;3.20;;;;;;;19.24;75.76;97931.30;105392;1284;22631;-82
2022/07/05 02:11:37;;;;;;;5.80;3.60;;;;;;;19.29;76.10;97932.44;105413;1284;23204;-82
2022/07/05 02:14:05;;;;;;;6.60;4.00;;;;;;;19.23;77.23;97928.55;105402;1284;25410;-82
2022/07/05 02:16:36;;;;;;;6.40;3.90;;;;;;;19.15;76.68;97929.45;105399;1284;22649;-80
2022/07/05 02:19:04;;;;;;;4.20;3.50;;;;;;;19.16;76.15;97932.14;105418;1284;24287;-80
2022/07/05 02:21:36;;;;;;;8.00;3.70;;;;;;;19.29;76.22;97931.58;105401;1283;25243;-81
2022/07/05 02:24:07;;;;;;;4.10;3.60;;;;;;;19.39;75.89;97933.11;105451;1284;22568;-82
2022/07/05 02:26:39;;;;;;;5.80;3.50;;;;;;;19.35;75.96;97930.45;105386;1284;22574;-82
2022/07/05 02:29:08;;;;;;;4.20;3.80;;;;;;;19.37;75.97;97933.16;105372;1284;22558;-81
2022/07/05 02:31:36;;;;;;;4.80;3.50;;;;;;;19.42;75.96;97927.50;105439;1284;25258;-83
2022/07/05 02:34:05;;;;;;;8.30;3.90;;;;;;;19.46;75.89;97931.50;105456;1284;24556;-82
2022/07/05 02:36:33;;;;;;;9.20;3.90;;;;;;;19.51;76.00;97929.43;105359;1284;23034;-81
2022/07/05 02:39:01;;;;;;;6.00;4.20;;;;;;;19.59;76.00;97929.35;105371;1284;22544;-81
2022/07/05 02:41:29;;;;;;;8.30;4.10;;;;;;;19.63;76.23;97934.29;105396;1283;22725;-81
2022/07/05 02:43:57;;;;;;;6.10;4.40;;;;;;;19.77;76.70;97936.89;105375;1284;22565;-81
2022/07/05 02:46:28;;;;;;;6.00;4.60;;;;;;;19.83;75.93;97941.69;105002;1284;22551;-82
2022/07/05 02:48:57;;;;;;;5.80;4.80;;;;;;;19.75;75.82;97941.77;105339;1284;22561;-82
2022/07/05 02:51:30;;;;;;;6.50;5.10;;;;;;;19.70;76.32;97941.27;105383;1284;24419;-82
2022/07/05 02:53:58;;;;;;;9.00;6.60;;;;;;;19.69;75.92;97944.05;105041;1284;22550;-82
2022/07/05 02:56:27;;;;;;;5.90;4.70;;;;;;;19.62;76.16;97941.30;105247;1286;22572;-81
2022/07/05 02:58:55;;;;;;;6.50;4.40;;;;;;;19.59;77.02;97937.78;105199;1284;22551;-82
2022/07/05 03:01:24;;;;;;;5.00;4.40;;;;;;;19.55;77.07;97933.40;105339;1284;22697;-81
2022/07/05 03:03:59;;;;;;;6.70;4.80;;;;;;;19.53;77.02;97942.10;105307;1284;22662;-82
2022/07/05 03:06:28;;;;;;;6.30;4.60;;;;;;;19.49;77.25;97937.72;105317;1284;22744;-81
2022/07/05 03:08:57;;;;;;;9.90;4.50;;;;;;;19.53;77.53;97940.63;105369;1284;22562;-82
2022/07/05 03:11:25;;;;;;;9.00;5.30;;;;;;;19.61;77.63;97945.25;105348;1284;22561;-82
2022/07/05 03:13:53;;;;;;;7.20;5.20;;;;;;;19.64;77.26;97947.59;105354;1284;22566;-83
2022/07/05 03:16:23;;;;;;;5.80;5.30;;;;;;;19.69;77.52;97945.16;105225;1284;22562;-81
2022/07/05 03:18:52;;;;;;;11.70;7.60;;;;;;;19.71;77.69;97948.02;105311;1284;22632;-82
2022/07/05 03:21:22;;;;;;;8.10;7.30;;;;;;;19.61;78.18;97948.00;105290;1283;22547;-82
2022/07/05 03:23:50;;;;;;;7.30;5.30;;;;;;;19.47;80.03;97948.23;105290;1284;24199;-82
2022/07/05 03:26:19;;;;;;;7.10;6.10;;;;;;;19.28;80.33;97947.56;105316;1283;22662;-82
2022/07/05 03:28:47;;;;;;;6.70;5.50;;;;;;;19.14;80.28;97943.95;105300;1284;22560;-82
2022/07/05 03:31:15;;;;;;;4.60;4.10;;;;;;;19.04;80.89;97947.68;105361;1284;22606;-81
2022/07/05 03:33:44;;;;;;;5.50;3.80;;;;;;;18.95;80.35;97942.16;104981;1284;22585;-80
2022/07/05 03:36:12;;;;;;;7.30;5.20;;;;;;;18.93;80.37;97943.92;105348;1284;22697;-79
2022/07/05 03:38:41;;;;;;;6.70;3.90;;;;;;;18.94;80.53;97948.55;105340;1284;22741;-81
2022/07/05 03:41:09;;;;;;;5.70;4.40;;;;;;;18.95;80.49;97957.84;105328;1284;22683;-80
2022/07/05 03:43:37;;;;;;;9.00;5.30;;;;;;;18.96;80.75;97960.52;105340;1284;22563;-81
2022/07/05 03:46:06;;;;;;;7.60;5.50;;;;;;;18.94;80.98;97965.17;105335;1284;22625;-81
2022/07/05 03:48:37;;;;;;;7.60;6.00;;;;;;;18.96;80.84;97968.16;105356;1284;22676;-80
2022/07/05 03:51:08;;;;;;;8.90;8.00;;;;;;;18.95;80.76;97971.27;105341;1284;22577;-80
2022/07/05 03:53:37;;;;;;;8.60;6.60;;;;;;;19.00;80.51;97973.34;105227;1285;25308;-81
2022/07/05 03:56:05;;;;;;;7.50;6.20;;;;;;;19.01;80.82;97985.23;105330;1284;22635;-81
2022/07/05 03:58:34;;;;;;;7.60;6.20;;;;;;;19.00;80.64;97989.27;105339;1284;22549;-81
2022/07/05 04:01:02;;;;;;;9.50;6.40;;;;;;;19.03;80.78;97994.70;105268;1284;24280;-81
2022/07/05 04:03:30;;;;;;;10.70;8.10;;;;;;;19.06;80.94;97992.37;105371;1284;25417;-81
2022/07/05 04:06:06;;;;;;;10.00;6.40;;;;;;;19.18;80.86;97992.04;105400;1284;22570;-81
2022/07/05 04:08:34;;;;;;;8.70;6.80;;;;;;;19.20;80.97;97990.39;105277;1284;23953;-81
2022/07/05 04:11:03;;;;;;;8.10;6.00;;;;;;;19.18;81.01;97994.47;105337;1284;22637;-81
2022/07/05 04:13:33;;;;;;;7.30;6.00;;;;;;;19.20;80.67;97998.65;105372;1284;22874;-81
2022/07/05 04:16:02;;;;;;;8.40;7.10;;;;;;;19.19;80.84;98002.69;105267;1284;25319;-82
2022/07/05 04:18:30;;;;;;;7.60;5.70;;;;;;;19.27;81.11;98005.91;105373;1284;22573;-81
2022/07/05 04:20:58;;;;;;;9.00;5.70;;;;;;;19.41;81.16;98000.71;105434;1284;22657;-81
2022/07/05 04:23:26;;;;;;;6.80;5.10;;;;;;;19.51;80.94;97998.83;105442;1284;22878;-83
2022/07/05 04:25:55;;;;;;;7.10;5.60;;;;;;;19.56;80.88;97996.29;105507;1284;22568;-82
2022/07/05 04:28:31;;;;;;;23.00;21.00;;;;;;;19.57;80.77;97999.50;105529;1284;25320;-82
2022/07/05 04:30:59;;;;;;;6.80;6.10;;;;;;;19.53;80.96;98000.13;105437;1284;26088;-82
2022/07/05 04:33:30;;;;;;;6.70;6.00;;;;;;;19.57;81.22;98001.08;105519;1284;22597;-81
2022/07/05 04:35:58;;;;;;;6.30;5.50;;;;;;;19.61;81.04;98002.49;105276;1284;22731;-82
2022/07/05 04:38:27;;;;;;;7.50;6.00;;;;;;;19.63;81.00;98007.21;105405;1284;22742;-82
2022/07/05 04:40:57;;;;;;;7.40;5.70;;;;;;;19.66;80.81;98010.23;105366;1284;22708;-82
2022/07/05 04:43:25;;;;;;;7.10;5.80;;;;;;;19.68;80.79;98012.85;105285;1284;22804;-82
2022/07/05 04:45:54;;;;;;;7.20;5.80;;;;;;;19.70;80.86;98016.40;105323;1284;22632;-81
2022/07/05 04:48:24;;;;;;;7.90;5.40;;;;;;;19.64;81.42;98015.38;105468;1284;25375;-81
2022/07/05 04:50:52;;;;;;;8.90;5.40;;;;;;;19.51;82.59;98019.44;105359;1284;22551;-82
2022/07/05 04:53:21;;;;;;;9.10;7.40;;;;;;;19.31;83.27;98016.31;105709;1284;22566;-82
2022/07/05 04:55:49;;;;;;;6.80;5.10;;;;;;;19.16;82.94;98016.79;105412;1284;24289;-81
2022/07/05 04:58:17;;;;;;;7.80;5.80;;;;;;;19.16;82.73;98021.33;105378;1284;25299;-81
2022/07/05 05:00:45;;;;;;;6.40;4.80;;;;;;;19.18;82.89;98024.66;105349;1284;25400;-81
2022/07/05 05:03:13;;;;;;;8.20;5.40;;;;;;;19.18;82.71;98031.93;105337;1284;24249;-82
2022/07/05 05:05:42;;;;;;;9.00;8.10;;;;;;;19.20;83.10;98028.68;105305;1284;22893;-81
2022/07/05 05:08:10;;;;;;;9.50;5.90;;;;;;;19.23;82.80;98025.19;105197;1285;25452;-81
2022/07/05 05:10:38;;;;;;;7.30;6.20;;;;;;;19.26;82.66;98020.81;105179;1285;22556;-80
2022/07/05 05:13:05;;;;;;;3.80;3.30;;;;;;;19.36;84.66;98017.91;105320;1284;22570;-81
2022/07/05 05:15:33;;;;;;;7.90;4.10;;;;;;;19.85;87.06;98016.10;105295;1283;23960;-81
2022/07/05 05:18:01;;;;;;;7.10;5.70;;;;;;;20.39;85.33;98020.83;105354;1284;22694;-82
2022/07/05 05:20:30;;;;;;;8.50;5.60;;;;;;;20.57;82.69;98025.38;105305;1283;25593;-82
2022/07/05 05:22:58;;;;;;;7.80;5.70;;;;;;;20.44;81.64;98030.79;105369;1284;22566;-82
2022/07/05 05:25:28;;;;;;;9.90;6.10;;;;;;;20.24;81.61;98034.84;105316;1284;22759;-81
2022/07/05 05:27:57;;;;;;;10.20;5.90;;;;;;;20.03;82.15;98039.92;105280;1284;22879;-81
2022/07/05 05:30:25;;;;;;;10.50;5.60;;;;;;;19.78;82.85;98047.20;105290;1283;22560;-81
2022/07/05 05:32:53;;;;;;;3.90;3.50;;;;;;;19.69;84.38;98041.92;105302;1283;25418;-82
2022/07/05 05:35:23;;;;;;;4.30;3.90;;;;;;;19.96;84.92;98044.08;105144;1286;24276;-81
2022/07/05 05:37:54;;;;;;;5.00;3.50;;;;;;;20.26;85.90;98039.01;105317;1283;24236;-82
2022/07/05 05:40:24;;;;;;;6.50;4.90;;;;;;;20.75;83.99;98038.02;105285;1285;22700;-81
2022/07/05 05:42:53;;;;;;;8.70;4.40;;;;;;;20.97;82.69;98036.13;105348;1283;24228;-81
2022/07/05 05:45:22;;;;;;;4.70;4.00;;;;;;;21.21;81.71;98034.82;105375;1283;22766;-81
2022/07/05 05:47:55;;;;;;;7.50;4.90;;;;;;;21.39;81.67;98037.27;105392;1283;22728;-80
2022/07/05 05:50:35;;;;;;;9.50;6.60;;;;;;;21.48;81.16;98037.02;105419;1284;23453;-80
2022/07/05 05:53:03;;;;;;;10.50;5.50;;;;;;;21.52;80.99;98039.20;105430;1284;22608;-81
2022/07/05 05:55:32;;;;;;;8.70;5.60;;;;;;;21.56;80.78;98042.87;105401;1283;25358;-81
2022/07/05 05:58:13;;;;;;;6.10;5.40;;;;;;;21.62;79.73;98047.27;105433;1284;25332;-80
2022/07/05 06:00:42;;;;;;;7.20;5.10;;;;;;;21.64;80.61;98054.27;105432;1283;22711;-81
2022/07/05 06:03:10;;;;;;;7.20;5.10;;;;;;;21.86;79.67;98064.55;105396;1283;24276;-81
2022/07/05 06:05:38;;;;;;;7.00;5.70;;;;;;;21.66;78.59;98075.70;105404;1284;23258;-82
2022/07/05 06:08:06;;;;;;;7.80;5.90;;;;;;;21.31;78.77;98087.39;105405;1284;25411;-81
2022/07/05 06:10:35;;;;;;;7.30;5.90;;;;;;;20.93;79.18;98102.90;105275;1284;22696;-81
2022/07/05 06:13:06;;;;;;;11.00;7.70;;;;;;;20.63;79.78;98110.13;105406;1283;24047;-82
2022/07/05 06:15:34;;;;;;;12.90;9.00;;;;;;;20.36;80.08;98119.13;105363;1283;24214;-82
2022/07/05 06:18:02;;;;;;;13.40;8.10;;;;;;;20.24;80.34;98121.63;105373;1284;22549;-82
2022/07/05 06:20:33;;;;;;;13.20;8.80;;;;;;;20.20;80.60;98118.17;105379;1284;22566;-82
2022/07/05 06:23:03;;;;;;;13.60;9.30;;;;;;;20.18;80.51;98124.16;105397;1283;22845;-82
2022/07/05 06:25:31;;;;;;;11.90;9.50;;;;;;;20.10;80.83;98129.59;105405;1284;22702;-81
2022/07/05 06:28:06;;;;;;;13.20;10.80;;;;;;;19.95;81.06;98133.38;105261;1284;22567;-81
2022/07/05 06:30:36;;;;;;;13.90;10.80;;;;;;;19.80;81.07;98134.98;105376;1284;24485;-83
2022/07/05 06:33:05;;;;;;;14.90;10.50;;;;;;;19.70;81.75;98132.23;105367;1284;22575;-81
2022/07/05 06:35:33;;;;;;;10.80;9.60;;;;;;;19.62;81.77;98136.47;105448;1284;23971;-81
2022/07/05 06:38:06;;;;;;;13.90;9.40;;;;;;;19.54;82.41;98137.05;105319;1285;25360;-82
2022/07/05 06:40:36;;;;;;;10.40;7.90;;;;;;;19.43;82.72;98130.23;105395;1284;22712;-81
2022/07/05 06:43:10;;;;;;;9.40;8.20;;;;;;;19.33;82.68;98128.69;105453;1284;22556;-81
2022/07/05 06:45:41;;;;;;;9.10;7.90;;;;;;;19.26;83.26;98128.59;105327;1285;23023;-81
2022/07/05 06:48:10;;;;;;;12.40;8.60;;;;;;;19.23;83.07;98127.42;105381;1284;22549;-81
2022/07/05 06:50:41;;;;;;;10.50;8.10;;;;;;;19.22;83.40;98130.29;105436;1284;22712;-81
2022/07/05 06:53:10;;;;;;;12.00;7.80;;;;;;;19.22;83.26;98128.34;105361;1284;24238;-82
2022/07/05 06:55:43;;;;;;;9.10;7.40;;;;;;;19.27;83.54;98126.42;105327;1284;22590;-82
2022/07/05 06:58:20;;;;;;;9.50;7.10;;;;;;;19.37;83.75;98127.70;105478;1284;22696;-81
2022/07/05 07:00:48;;;;;;;8.70;7.70;;;;;;;19.39;83.45;98130.58;105385;1283;24431;-81
2022/07/05 07:03:36;;;;;;;12.10;8.80;;;;;;;19.35;83.85;98130.48;105373;1284;25126;-80
2022/07/05 07:06:24;;;;;;;9.00;8.10;;;;;;;19.31;83.78;98123.95;105373;1284;23486;-80
2022/07/05 07:11:38;;;;;;;10.20;8.20;;;;;;;19.22;83.84;98116.00;105306;1284;24243;-80
2022/07/05 07:14:06;;;;;;;11.20;7.70;;;;;;;19.25;83.72;98109.13;105266;1284;24374;-81
2022/07/05 07:16:34;;;;;;;8.30;7.30;;;;;;;19.25;83.86;98101.79;105284;1284;22712;-81
2022/07/05 07:19:02;;;;;;;8.90;7.30;;;;;;;19.27;84.20;98106.36;105350;1284;22547;-81
2022/07/05 07:21:41;;;;;;;9.70;7.50;;;;;;;19.27;83.82;98108.16;105346;1284;22557;-81
2022/07/05 07:24:10;;;;;;;10.70;7.50;;;;;;;19.20;84.00;98097.08;105402;1284;25353;-80
2022/07/05 07:29:25;;;;;;;8.80;7.90;;;;;;;19.16;84.61;98082.11;105302;1284;22563;-80
2022/07/05 07:31:54;;;;;;;9.70;8.70;;;;;;;19.13;84.96;98080.34;105255;1284;22597;-81
2022/07/05 07:34:23;;;;;;;10.10;8.10;;;;;;;19.12;85.26;98082.39;105390;1284;23322;-81
2022/07/05 07:36:51;;;;;;;11.90;9.00;;;;;;;19.07;85.18;98078.23;105332;1283;23482;-81
2022/07/05 07:39:20;;;;;;;8.40;7.50;;;;;;;19.08;85.51;98073.98;105367;1283;24195;-81
2022/07/05 07:41:50;;;;;;;8.70;6.60;;;;;;;19.11;85.92;98069.88;105341;1284;24343;-81
2022/07/05 07:44:18;;;;;;;7.10;6.40;;;;;;;19.03;86.18;98064.71;105346;1284;22565;-81
2022/07/05 07:46:46;;;;;;;8.60;7.00;;;;;;;18.97;86.13;98066.73;105348;1284;23380;-81
2022/07/05 07:49:14;;;;;;;8.00;7.10;;;;;;;18.91;86.49;98070.41;105344;1284;25469;-81
2022/07/05 07:51:42;;;;;;;8.00;7.20;;;;;;;18.87;86.66;98073.61;105272;1284;25986;-81
2022/07/05 07:54:11;;;;;;;8.10;7.30;;;;;;;18.81;86.88;98078.88;105399;1284;25515;-81
2022/07/05 07:56:39;;;;;;;10.20;8.50;;;;;;;18.75;87.14;98080.27;105351;1284;22588;-82
2022/07/05 07:59:07;;;;;;;7.90;7.10;;;;;;;18.70;87.31;98079.06;105324;1284;24423;-82
2022/07/05 08:01:35;;;;;;;8.20;7.10;;;;;;;18.69;87.51;98082.87;105280;1284;25411;-82
2022/07/05 08:04:12;;;;;;;8.70;7.30;;;;;;;18.63;87.68;98085.83;105365;1284;24290;-81
2022/07/05 08:06:43;;;;;;;7.90;7.00;;;;;;;18.57;87.52;98091.13;105390;1284;23940;-81
2022/07/05 08:09:11;;;;;;;9.20;7.50;;;;;;;18.59;87.58;98094.52;105369;1283;24467;-80
2022/07/05 08:11:47;;;;;;;10.60;8.90;;;;;;;18.65;87.64;98096.86;105422;1283;22633;-81
2022/07/05 08:14:16;;;;;;;12.00;9.40;;;;;;;18.66;87.88;98094.61;105400;1284;25238;-82
2022/07/05 08:16:48;;;;;;;11.00;9.50;;;;;;;18.68;87.70;98101.09;105432;1284;25385;-81
2022/07/05 08:22:08;;;;;;;9.50;8.30;;;;;;;18.61;88.13;98112.11;105487;1284;22797;-81
2022/07/05 08:24:39;;;;;;;9.20;8.20;;;;;;;18.58;88.22;98114.55;105205;1285;25318;-82
2022/07/05 08:27:08;;;;;;;10.50;7.60;;;;;;;18.59;88.63;98112.31;105372;1284;22641;-81
2022/07/05 08:29:37;;;;;;;8.80;7.40;;;;;;;18.62;88.54;98110.51;105273;1284;23933;-82
2022/07/05 08:32:08;;;;;;;8.70;7.10;;;;;;;18.72;88.63;98109.32;105237;1284;25427;-81
2022/07/05 08:34:36;;;;;;;9.20;8.10;;;;;;;18.82;88.57;98102.94;105370;1285;22800;-81
2022/07/05 08:37:06;;;;;;;9.50;8.70;;;;;;;18.86;88.17;98103.16;105331;1285;22590;-81
2022/07/05 08:39:42;;;;;;;9.60;8.60;;;;;;;18.88;88.36;98116.17;105325;1284;23947;-81
2022/07/05 08:42:11;;;;;;;9.40;8.50;;;;;;;18.83;88.67;98124.63;105312;1284;24479;-81
2022/07/05 08:44:42;;;;;;;9.30;8.40;;;;;;;18.82;89.18;98121.08;105224;1285;22562;-81
2022/07/05 08:47:11;;;;;;;10.20;8.20;;;;;;;18.81;88.89;98115.61;105334;1284;22549;-81
2022/07/05 08:49:42;;;;;;;8.30;7.40;;;;;;;18.78;88.58;98107.86;105425;1284;22779;-82
2022/07/05 08:52:12;;;;;;;12.10;9.00;;;;;;;18.83;89.13;98109.33;105324;1284;23015;-82
2022/07/05 08:54:40;;;;;;;10.50;9.50;;;;;;;18.86;88.86;98106.98;105457;1284;25557;-82
2022/07/05 08:57:09;;;;;;;14.70;13.30;;;;;;;18.82;89.52;98111.71;105419;1283;25364;-81
2022/07/05 08:59:41;;;;;;;18.70;16.30;;;;;;;18.77;89.25;98118.70;105417;1284;26536;-81
2022/07/05 09:02:13;;;;;;;15.90;14.20;;;;;;;18.76;89.26;98115.84;105379;1284;22621;-80
2022/07/05 09:04:45;;;;;;;28.50;25.50;;;;;;;18.84;89.57;98115.91;105459;1284;22705;-81
2022/07/05 09:07:17;;;;;;;26.00;22.10;;;;;;;18.96;89.56;98110.31;105394;1284;26646;-82
2022/07/05 09:09:48;;;;;;;17.30;15.10;;;;;;;18.98;89.02;98109.73;105435;1283;22557;-82
2022/07/05 09:12:16;;;;;;;13.80;10.60;;;;;;;19.02;89.27;98113.83;105392;1283;23283;-81
2022/07/05 09:14:52;;;;;;;10.70;8.50;;;;;;;19.06;89.07;98118.09;105389;1283;22559;-81
2022/07/05 09:17:20;;;;;;;9.10;7.20;;;;;;;19.08;88.98;98112.73;105407;1284;22566;-81
2022/07/05 09:20:06;;;;;;;9.90;8.70;;;;;;;19.04;89.06;98102.81;105383;1283;25333;-81
2022/07/05 09:22:52;;;;;;;8.60;7.50;;;;;;;19.04;89.06;98095.86;105355;1286;25419;-80
2022/07/05 09:25:29;;;;;;;8.30;7.10;;;;;;;19.05;89.28;98095.89;105523;1283;25517;-80
2022/07/05 09:28:00;;;;;;;11.70;7.80;;;;;;;19.09;89.67;98098.41;105429;1283;22487;-81
2022/07/05 09:30:32;;;;;;;9.60;7.60;;;;;;;19.19;90.16;98099.61;106167;1283;24206;-80
2022/07/05 09:33:06;;;;;;;9.30;7.80;;;;;;;19.52;93.11;98098.83;105859;1284;22574;-81
2022/07/05 09:35:40;;;;;;;8.20;6.10;;;;;;;19.86;90.35;98098.63;105491;1283;25328;-79
2022/07/05 09:38:22;;;;;;;9.60;7.20;;;;;;;20.04;90.71;98100.45;105445;1284;22534;-80
2022/07/05 09:40:52;;;;;;;8.10;6.80;;;;;;;20.38;90.18;98106.30;105322;1284;22729;-78
2022/07/05 09:43:23;;;;;;;11.20;6.90;;;;;;;20.48;88.52;98111.44;105371;1285;25638;-80
2022/07/05 09:45:55;;;;;;;9.40;5.00;;;;;;;20.59;89.48;98102.30;105332;1286;22629;-79
2022/07/05 09:48:24;;;;;;;8.50;5.00;;;;;;;20.86;89.50;98094.62;105414;1283;24492;-78
2022/07/05 09:51:04;;;;;;;;;;;;;;;21.06;88.39;98088.66;105117;1285;22560;-81
2022/07/05 09:53:54;;;;;;;6.70;4.60;;;;;;;21.11;87.72;98084.36;105331;1285;22590;-79
2022/07/05 09:56:29;;;;;;;7.40;4.60;;;;;;;21.24;87.25;98088.11;105157;1284;25469;-79
2022/07/05 09:59:13;;;;;;;7.50;5.20;;;;;;;21.31;86.49;98090.60;105300;1284;25511;-79
2022/07/05 10:01:41;;;;;;;5.30;4.50;;;;;;;21.28;85.99;98089.92;105416;1284;25337;-78
2022/07/05 10:04:10;;;;;;;6.30;4.50;;;;;;;21.54;86.63;98097.35;105504;1283;25412;-79
2022/07/05 10:06:38;;;;;;;5.30;3.60;;;;;;;21.76;86.39;98090.73;105678;1284;22632;-78
2022/07/05 10:09:08;;;;;;;6.80;4.70;;;;;;;21.87;85.72;98091.69;105627;1284;22616;-78
2022/07/05 10:11:39;;;;;;;5.40;4.40;;;;;;;21.86;85.08;98097.40;105391;1283;22600;-78
2022/07/05 10:14:18;;;;;;;5.80;4.50;;;;;;;21.77;84.82;98104.55;105427;1283;25327;-78
2022/07/05 10:16:57;;;;;;;5.60;4.60;;;;;;;21.59;83.35;98109.58;105382;1284;24400;-77
2022/07/05 10:19:32;;;;;;;10.20;6.50;;;;;;;21.19;83.45;98113.38;105336;1284;22588;-79
2022/07/05 10:22:01;;;;;;;10.40;4.60;;;;;;;20.85;83.25;98114.30;105361;1283;26154;-78
2022/07/05 10:24:48;;;;;;;5.60;4.20;;;;;;;20.63;83.84;98115.52;105149;1284;24379;-79
2022/07/05 10:27:19;;;;;;;5.80;5.00;;;;;;;20.40;83.35;98119.52;105409;1283;26685;-78
2022/07/05 10:29:50;;;;;;;7.40;5.10;;;;;;;20.09;84.13;98120.75;105407;1285;25456;-79
2022/07/05 10:32:19;;;;;;;6.90;5.90;;;;;;;20.10;85.48;98125.45;105586;1283;22569;-79
2022/07/05 10:34:51;;;;;;;6.80;5.60;;;;;;;20.32;86.60;98128.44;105394;1284;23495;-78
2022/07/05 10:37:25;;;;;;;6.60;4.70;;;;;;;20.72;86.69;98125.01;105490;1284;22781;-79
2022/07/05 10:39:55;;;;;;;6.60;5.30;;;;;;;21.06;85.30;98129.42;105497;1284;24412;-82
2022/07/05 10:42:26;;;;;;;6.00;4.70;;;;;;;21.22;84.50;98125.73;105414;1285;22719;-80
2022/07/05 10:44:54;;;;;;;8.70;5.10;;;;;;;21.35;83.86;98123.79;105076;1285;25380;-80
2022/07/05 10:47:22;;;;;;;5.90;4.60;;;;;;;21.40;83.79;98125.45;105340;1284;22634;-80
2022/07/05 10:50:00;;;;;;;5.20;4.30;;;;;;;21.52;83.20;98122.71;105400;1284;22567;-81
2022/07/05 10:52:28;;;;;;;5.90;4.10;;;;;;;21.53;82.74;98125.85;105523;1284;23532;-80
2022/07/05 10:55:22;;;;;;;6.50;4.50;;;;;;;21.57;82.72;98124.73;105054;1284;25525;-80
2022/07/05 10:58:23;;;;;;;9.70;4.60;;;;;;;21.56;82.65;98122.70;105329;1285;22651;-81
2022/07/05 11:01:19;;;;;;;5.70;4.40;;;;;;;21.60;81.71;98117.11;105071;1284;22715;-80
2022/07/05 11:03:52;;;;;;;5.60;4.10;;;;;;;21.44;81.45;98109.89;105081;1284;25481;-80
2022/07/05 11:06:20;;;;;;;6.80;3.90;;;;;;;21.38;81.63;98105.46;105385;1284;22887;-80
2022/07/05 11:09:00;;;;;;;4.80;3.70;;;;;;;21.38;81.51;98106.80;105350;1283;24395;-79
2022/07/05 11:11:32;;;;;;;7.20;4.00;;;;;;;21.28;81.25;98109.11;105410;1284;25312;-80
2022/07/05 11:14:25;;;;;;;5.40;3.90;;;;;;;21.25;81.21;98103.48;105496;1284;25429;-83
2022/07/05 11:17:08;;;;;;;6.10;4.40;;;;;;;21.14;80.39;98099.53;105278;1284;22830;-78
2022/07/05 11:20:06;;;;;;;8.40;4.10;;;;;;;20.80;80.79;98095.98;105411;1284;24287;-80
2022/07/05 11:22:37;;;;;;;5.80;4.20;;;;;;;20.76;81.23;98099.42;105447;1284;22764;-80
2022/07/05 11:25:06;;;;;;;5.10;3.40;;;;;;;20.77;82.07;98098.91;105446;1284;22630;-80
2022/07/05 11:27:34;;;;;;;5.10;3.70;;;;;;;20.91;82.16;98095.89;105395;1284;23981;-80
2022/07/05 11:30:03;;;;;;;5.90;3.70;;;;;;;20.94;81.10;98092.48;105386;1283;22732;-81
2022/07/05 11:32:31;;;;;;;4.50;3.20;;;;;;;20.96;81.23;98093.79;105433;1284;24413;-79
2022/07/05 11:35:19;;;;;;;4.60;3.30;;;;;;;21.00;81.16;98092.30;105176;1284;25479;-81
2022/07/05 11:38:07;;;;;;;4.30;3.40;;;;;;;21.05;81.47;98091.38;105437;1284;25507;-81
2022/07/05 11:40:55;;;;;;;4.20;3.30;;;;;;;21.15;81.43;98089.67;105095;1284;22563;-80
2022/07/05 11:43:30;;;;;;;6.60;3.50;;;;;;;21.34;81.72;98087.83;105551;1284;22704;-79
2022/07/05 11:45:59;;;;;;;4.70;3.40;;;;;;;21.49;81.16;98088.65;105497;1283;24320;-79
2022/07/05 11:48:28;;;;;;;6.10;3.60;;;;;;;21.59;80.82;98087.34;105546;1284;22746;-81
2022/07/05 11:50:56;;;;;;;7.10;3.40;;;;;;;21.59;79.97;98085.61;105348;1283;22715;-81